createdAt,value
2023-03-16T00:01:59.029Z,-2.06
2023-03-16T00:07:00.877Z,-1.98
2023-03-16T00:12:03.746Z,-1.86
2023-03-16T00:17:06.654Z,-1.79
2023-03-16T00:22:08.511Z,-1.78
2023-03-16T00:27:14.724Z,-1.79
2023-03-16T00:32:20.768Z,-1.77
2023-03-16T00:37:25.223Z,-1.80
2023-03-16T00:42:29.909Z,-1.80
2023-03-16T00:47:34.763Z,-1.87
2023-03-16T00:52:37.808Z,-2.03
2023-03-16T00:57:39.587Z,-2.22
2023-03-16T01:02:42.195Z,-2.42
2023-03-16T01:07:45.305Z,-2.55
2023-03-16T01:12:47.174Z,-2.62
2023-03-16T01:17:49.401Z,-2.66
2023-03-16T01:22:51.365Z,-2.71
2023-03-16T01:27:53.753Z,-2.84
2023-03-16T01:32:55.881Z,-3.03
2023-03-16T01:37:58.328Z,-3.23
2023-03-16T01:43:04.586Z,-3.36
2023-03-16T01:48:15.715Z,-3.39
2023-03-16T01:53:19.904Z,-3.37
2023-03-16T01:58:22.516Z,-3.39
2023-03-16T02:03:26.827Z,-3.50
2023-03-16T02:08:37.641Z,-3.73
2023-03-16T02:13:39.547Z,-3.94
2023-03-16T02:18:41.584Z,-4.14
2023-03-16T02:23:46.045Z,-4.26
2023-03-16T02:29:17.939Z,-4.27
2023-03-16T02:34:21.510Z,-4.19
2023-03-16T02:39:24.000Z,-4.19
2023-03-16T02:44:37.010Z,-4.26
2023-03-16T02:49:44.116Z,-4.38
2023-03-16T02:54:45.901Z,-4.53
2023-03-16T02:59:48.544Z,-4.60
2023-03-16T03:04:54.447Z,-4.54
2023-03-16T03:09:58.704Z,-4.45
2023-03-16T03:15:00.926Z,-4.44
2023-03-16T03:20:13.724Z,-4.48
2023-03-16T03:25:18.426Z,-4.57
2023-03-16T03:30:22.801Z,-4.69
2023-03-16T03:35:24.661Z,-4.73
2023-03-16T03:40:27.350Z,-4.67
2023-03-16T03:45:34.547Z,-4.56
2023-03-16T03:50:38.586Z,-4.55
2023-03-16T03:56:03.356Z,-4.65
2023-03-16T04:01:05.336Z,-4.74
2023-03-16T04:06:08.298Z,-4.86
2023-03-16T04:11:11.957Z,-4.92
2023-03-16T04:16:16.350Z,-4.89
2023-03-16T04:21:21.169Z,-4.79
2023-03-16T04:26:22.985Z,-4.77
2023-03-16T04:31:25.085Z,-4.79
2023-03-16T04:36:27.444Z,-4.89
2023-03-16T04:41:30.397Z,-4.99
2023-03-16T04:46:36.389Z,-5.01
2023-03-16T04:51:42.639Z,-4.95
2023-03-16T04:56:48.016Z,-4.84
2023-03-16T05:02:10.012Z,-4.79
2023-03-16T05:07:12.504Z,-4.83
2023-03-16T05:12:16.508Z,-4.90
2023-03-16T05:17:19.243Z,-4.99
2023-03-16T05:22:21.245Z,-4.99
2023-03-16T05:27:49.613Z,-4.87
2023-03-16T05:32:57.935Z,-4.69
2023-03-16T05:38:00.362Z,-4.50
2023-03-16T05:43:04.426Z,-4.30
2023-03-16T05:48:08.337Z,-4.10
2023-03-16T05:53:13.855Z,-3.92
2023-03-16T05:58:16.414Z,-3.72
2023-03-16T06:03:18.445Z,-3.37
2023-03-16T06:08:21.084Z,-2.96
2023-03-16T06:13:24.214Z,-2.61
2023-03-16T06:18:26.270Z,-2.34
2023-03-16T06:23:28.160Z,-2.14
2023-03-16T06:28:31.124Z,-1.97
2023-03-16T06:33:33.187Z,-1.80
2023-03-16T06:38:35.106Z,-1.64
2023-03-16T06:43:39.837Z,-1.49
2023-03-16T06:48:42.145Z,-1.37
2023-03-16T06:53:44.168Z,-1.26
2023-03-16T06:58:46.148Z,-1.05
2023-03-16T07:03:48.145Z,-0.87
2023-03-16T07:08:57.472Z,-0.77
2023-03-16T07:13:59.621Z,-0.79
2023-03-16T07:19:02.095Z,-0.79
2023-03-16T07:24:03.990Z,-0.79
2023-03-16T07:29:10.096Z,-0.80
2023-03-16T07:34:12.332Z,-0.77
2023-03-16T07:39:18.634Z,-0.71
2023-03-16T07:44:20.851Z,-0.60
2023-03-16T07:49:23.570Z,-0.46
2023-03-16T08:00:35.909Z,-0.14
2023-03-16T08:05:38.016Z,0.03
2023-03-16T08:10:44.186Z,0.25
2023-03-16T08:15:58.360Z,0.53
2023-03-16T08:21:08.616Z,0.82
2023-03-16T08:26:10.838Z,1.00
2023-03-16T08:31:14.929Z,1.11
2023-03-16T08:36:25.819Z,1.37
2023-03-16T08:41:30.983Z,1.74
2023-03-16T08:46:34.577Z,2.01
2023-03-16T08:51:37.133Z,2.24
2023-03-16T08:56:39.105Z,2.36
2023-03-16T09:01:41.395Z,2.42
2023-03-16T09:06:43.195Z,2.52
2023-03-16T09:11:45.298Z,2.67
2023-03-16T09:16:47.048Z,2.88
2023-03-16T09:21:48.776Z,3.08
2023-03-16T09:26:50.722Z,3.39
2023-03-16T09:31:52.765Z,3.60
2023-03-16T09:36:55.473Z,3.70
2023-03-16T09:42:19.249Z,3.80
2023-03-16T09:47:34.096Z,4.14
2023-03-16T09:52:58.759Z,4.51
2023-03-16T09:58:04.696Z,4.71
2023-03-16T10:03:25.248Z,4.60
2023-03-16T10:08:40.947Z,4.89
2023-03-16T10:13:58.374Z,5.19
2023-03-16T10:19:11.524Z,5.37
2023-03-16T10:24:22.099Z,5.84
2023-03-16T10:29:23.750Z,6.25
2023-03-16T10:34:26.152Z,6.47
2023-03-16T10:39:36.694Z,6.01
2023-03-16T10:44:40.244Z,6.06
2023-03-16T10:49:48.717Z,6.38
2023-03-16T10:55:07.816Z,6.13
2023-03-16T11:00:16.030Z,6.12
2023-03-16T11:05:17.726Z,6.48
2023-03-16T11:10:46.001Z,6.53
2023-03-16T11:15:57.865Z,6.28
2023-03-16T11:21:12.757Z,6.22
2023-03-16T11:26:23.198Z,6.43
2023-03-16T11:31:43.065Z,6.61
2023-03-16T11:36:56.755Z,6.70
2023-03-16T11:42:07.833Z,6.68
2023-03-16T11:47:34.141Z,6.64
2023-03-16T11:52:47.005Z,6.74
2023-03-16T11:58:03.997Z,6.63
2023-03-16T12:03:25.231Z,6.35
2023-03-16T12:08:48.695Z,6.14
2023-03-16T12:13:53.544Z,6.48
2023-03-16T12:19:06.745Z,6.76
2023-03-16T12:24:18.198Z,7.00
2023-03-16T12:29:32.818Z,7.05
2023-03-16T12:35:00.984Z,7.09
2023-03-16T12:40:09.342Z,6.90
2023-03-16T12:45:34.188Z,6.53
2023-03-16T12:50:49.261Z,6.16
2023-03-16T12:55:51.633Z,6.38
2023-03-16T13:00:59.588Z,6.80
2023-03-16T13:06:03.586Z,7.00
2023-03-16T13:11:12.148Z,7.10
2023-03-16T13:16:25.918Z,6.97
2023-03-16T13:21:35.855Z,6.89
2023-03-16T13:26:49.927Z,6.87
2023-03-16T13:31:53.148Z,7.00
2023-03-16T13:36:57.259Z,7.06
2023-03-16T13:42:09.808Z,7.23
2023-03-16T13:47:20.199Z,7.45
2023-03-16T13:52:34.349Z,7.46
2023-03-16T13:57:39.184Z,7.39
2023-03-16T14:02:43.617Z,7.55
2023-03-16T14:07:51.139Z,7.78
2023-03-16T14:12:58.766Z,8.05
2023-03-16T14:18:37.394Z,8.18
2023-03-16T14:23:47.863Z,8.33
2023-03-16T14:29:07.356Z,8.44
2023-03-16T14:34:29.677Z,8.17
2023-03-16T14:39:31.432Z,7.92
2023-03-16T14:44:35.959Z,7.91
2023-03-16T14:49:40.987Z,8.14
2023-03-16T14:54:44.566Z,8.13
2023-03-16T14:59:46.899Z,8.17
2023-03-16T15:04:49.497Z,8.13
2023-03-16T15:09:53.901Z,8.20
2023-03-16T15:15:14.304Z,8.15
2023-03-16T15:20:24.276Z,7.98
2023-03-16T15:25:35.773Z,7.65
2023-03-16T15:30:38.207Z,7.44
2023-03-16T15:35:41.611Z,7.10
2023-03-16T15:40:45.477Z,6.84
2023-03-16T15:45:47.982Z,6.69
2023-03-16T15:51:25.690Z,6.50
2023-03-16T15:56:30.919Z,6.18
2023-03-16T16:01:40.155Z,5.89
2023-03-16T16:06:42.479Z,5.65
2023-03-16T16:11:47.155Z,5.43
2023-03-16T16:16:48.947Z,5.19
2023-03-16T16:21:50.698Z,4.94
2023-03-16T16:26:55.271Z,4.68
2023-03-16T16:31:57.860Z,4.40
2023-03-16T16:36:59.701Z,4.08
2023-03-16T16:42:01.897Z,3.76
2023-03-16T16:47:06.358Z,3.45
2023-03-16T16:52:15.264Z,3.11
2023-03-16T16:57:20.849Z,2.80
2023-03-16T17:02:32.225Z,2.52
2023-03-16T17:07:33.950Z,2.22
2023-03-16T17:12:35.929Z,1.93
2023-03-16T17:17:37.669Z,1.63
2023-03-16T17:22:39.369Z,1.36
2023-03-16T17:27:42.926Z,1.11
2023-03-16T17:32:44.667Z,0.87
2023-03-16T17:37:47.973Z,0.64
2023-03-16T17:42:50.444Z,0.43
2023-03-16T17:47:54.042Z,0.22
2023-03-16T17:52:56.700Z,0.01
2023-03-16T17:57:59.189Z,-0.16
2023-03-16T18:03:04.602Z,-0.32
2023-03-16T18:08:26.181Z,-0.49
2023-03-16T18:13:32.775Z,-0.67
2023-03-16T18:18:40.285Z,-0.86
2023-03-16T18:23:42.291Z,-1.07
2023-03-16T18:28:44.687Z,-1.28
2023-03-16T18:33:52.736Z,-1.45
2023-03-16T18:38:58.618Z,-1.62
2023-03-16T18:44:17.661Z,-1.78
2023-03-16T18:49:32.698Z,-1.92
2023-03-16T18:54:38.899Z,-2.05
2023-03-16T18:59:41.122Z,-2.17
2023-03-16T19:04:43.122Z,-2.30
2023-03-16T19:09:45.079Z,-2.42
2023-03-16T19:14:47.782Z,-2.48
2023-03-16T19:19:49.754Z,-2.42
2023-03-16T19:24:55.388Z,-2.35
2023-03-16T19:29:58.924Z,-2.31
2023-03-16T19:35:01.231Z,-2.32
2023-03-16T19:40:03.369Z,-2.37
2023-03-16T19:45:06.828Z,-2.47
2023-03-16T19:50:15.869Z,-2.57
2023-03-16T19:55:21.127Z,-2.68
2023-03-16T20:00:26.112Z,-2.79
2023-03-16T20:05:31.575Z,-2.86
2023-03-16T20:10:33.573Z,-2.86
2023-03-16T20:15:37.650Z,-2.81
2023-03-16T20:20:39.653Z,-2.70
2023-03-16T20:25:41.792Z,-2.66
2023-03-16T20:30:43.591Z,-2.69
2023-03-16T20:35:46.897Z,-2.76
2023-03-16T20:40:52.246Z,-2.88
2023-03-16T20:45:57.384Z,-2.99
2023-03-16T20:51:00.659Z,-3.12
2023-03-16T20:56:03.213Z,-3.18
2023-03-16T21:01:05.780Z,-3.05
2023-03-16T21:06:23.686Z,-2.93
2023-03-16T21:11:37.320Z,-2.85
2023-03-16T21:16:40.608Z,-2.80
2023-03-16T21:21:42.579Z,-2.85
2023-03-16T21:26:47.063Z,-2.96
2023-03-16T21:31:49.614Z,-3.12
2023-03-16T21:36:51.620Z,-3.28
2023-03-16T21:41:53.711Z,-3.40
2023-03-16T21:46:58.471Z,-3.52
2023-03-16T21:52:01.512Z,-3.62
2023-03-16T21:57:13.929Z,-3.72
2023-03-16T22:02:27.729Z,-3.83
2023-03-16T22:07:29.601Z,-3.84
2023-03-16T22:12:31.960Z,-3.77
2023-03-16T22:17:35.989Z,-3.58
2023-03-16T22:22:37.704Z,-3.44
2023-03-16T22:27:40.102Z,-3.40
2023-03-16T22:32:42.796Z,-3.41
2023-03-16T22:37:44.797Z,-3.42
2023-03-16T22:42:47.564Z,-3.38
2023-03-16T22:48:19.605Z,-3.30
2023-03-16T22:53:45.956Z,-3.29
2023-03-16T22:58:51.343Z,-3.25
2023-03-16T23:03:53.791Z,-3.13
2023-03-16T23:08:56.093Z,-3.04
2023-03-16T23:13:59.738Z,-2.99
2023-03-16T23:19:03.250Z,-3.04
2023-03-16T23:24:05.705Z,-3.14
2023-03-16T23:29:08.106Z,-3.27
2023-03-16T23:34:12.229Z,-3.43
2023-03-16T23:39:14.376Z,-3.55
2023-03-16T23:44:18.669Z,-3.61
2023-03-16T23:49:23.578Z,-3.61
2023-03-16T23:54:30.815Z,-3.59
2023-03-16T23:59:33.176Z,-3.61
